Hauptseite
METAR-TAF:

METAR-TAF

Flughäfen :

Tongatapu, Tonga

Flughafen Fuaʻamotu

Breite: 21-14S, Länge: 175-09W, Höhe: 38 m

Beobachtung

Neuester Wetterbericht von vor 1 Stunde und 10 Minuten, um 17:00 UTC
Windstille
Temperatur 23°C
Luftfeuchtigkeit 83%
Luftdruck 1018 hPa
Sichtweite 10 km oder mehr
Leicht bewölkt in der Höhe von 1600 ft, Towering cumulus.
Durchbrochene Bewölkung in der Höhe von 3500 ft

METAR: NFTF 261700Z 00000KT 9999 FEW016TCU BKN035 23/20 Q1018

Zeit: 07:10 (18:10 UTC)

Prognose

Neuester Wetterbericht von vor 1 Stunde und 4 Minuten, um 17:06 UTC
Gültige Prognose vom 26 um 18 UTC bis 27 um 18 UTC
Wind 6 kt aus Ost/Südost
Sichtweite 10 km oder mehr
Leicht bewölkt in der Höhe von 1600 ft
Aufgelockert bewölkt in der Höhe von 3500 ft

TAF: NFTF 261706Z 2618/2718 12006KT 9999 FEW016 SCT035

Wetterbeobachtungen und Prognosen von mehr als 4000 Flughäfen (METAR und TAF Bericht).

Die verfügbaren Stationen werden durch gelbe und rote Markierungen auf der Karte dargestellt.

Führen Sie die Maus auf sie, um den Namen der Station zu sehen.

Darauf klicken, um die Beobachtung von Wetterbeobachtungen und Prognosen zu sehen.

Um die Karte zu ändern : klicken Sie auf den grünen Tasten mit einem schwarzen Kreuz Zum Vergrößern, auf den grünen Button mit einem Gedankenstrich zu verkleinern, oder auf die grünen Pfeile für benachbarte Karten.


METAR-TAF: